sensor_id;sensor_type;location;lat;lon;timestamp;temperature;humidity
36458;DHT22;22480;50.546;12.292;2023-01-20T00:02:01;-1.00;99.90
36458;DHT22;22480;50.546;12.292;2023-01-20T00:04:27;-1.00;99.90
36458;DHT22;22480;50.546;12.292;2023-01-20T00:06:53;-1.10;99.90
36458;DHT22;22480;50.546;12.292;2023-01-20T00:09:19;-1.10;99.90
36458;DHT22;22480;50.546;12.292;2023-01-20T00:11:45;-1.10;99.90
36458;DHT22;22480;50.546;12.292;2023-01-20T00:14:11;-1.10;99.90
36458;DHT22;22480;50.546;12.292;2023-01-20T00:16:37;-1.00;99.90
36458;DHT22;22480;50.546;12.292;2023-01-20T00:19:02;-1.00;99.90
36458;DHT22;22480;50.546;12.292;2023-01-20T00:21:28;-1.10;99.90
36458;DHT22;22480;50.546;12.292;2023-01-20T00:23:54;-1.10;99.90
36458;DHT22;22480;50.546;12.292;2023-01-20T00:26:23;-1.10;99.90
36458;DHT22;22480;50.546;12.292;2023-01-20T00:28:52;-1.10;99.90
36458;DHT22;22480;50.546;12.292;2023-01-20T00:31:21;-1.10;99.90
36458;DHT22;22480;50.546;12.292;2023-01-20T00:33:48;-1.10;99.90
36458;DHT22;22480;50.546;12.292;2023-01-20T00:36:16;-1.00;99.90
36458;DHT22;22480;50.546;12.292;2023-01-20T00:38:42;-1.00;99.90
36458;DHT22;22480;50.546;12.292;2023-01-20T00:41:09;-1.00;99.90
36458;DHT22;22480;50.546;12.292;2023-01-20T00:43:35;-1.00;99.90
36458;DHT22;22480;50.546;12.292;2023-01-20T00:46:02;-1.00;99.90
36458;DHT22;22480;50.546;12.292;2023-01-20T00:48:28;-1.10;99.90
36458;DHT22;22480;50.546;12.292;2023-01-20T00:50:53;-1.00;99.90
36458;DHT22;22480;50.546;12.292;2023-01-20T00:53:19;-1.00;99.90
36458;DHT22;22480;50.546;12.292;2023-01-20T00:55:45;-1.10;99.90
36458;DHT22;22480;50.546;12.292;2023-01-20T00:58:11;-1.10;99.90
36458;DHT22;22480;50.546;12.292;2023-01-20T01:00:36;-1.10;99.90
36458;DHT22;22480;50.546;12.292;2023-01-20T01:03:02;-1.10;99.90
36458;DHT22;22480;50.546;12.292;2023-01-20T01:05:30;-1.10;99.90
36458;DHT22;22480;50.546;12.292;2023-01-20T01:07:55;-1.10;99.90
36458;DHT22;22480;50.546;12.292;2023-01-20T01:10:21;-1.00;99.90
36458;DHT22;22480;50.546;12.292;2023-01-20T01:12:47;-1.00;99.90
36458;DHT22;22480;50.546;12.292;2023-01-20T01:15:12;-1.10;99.90
36458;DHT22;22480;50.546;12.292;2023-01-20T01:17:38;-1.10;99.90
36458;DHT22;22480;50.546;12.292;2023-01-20T01:20:04;-1.10;99.90
36458;DHT22;22480;50.546;12.292;2023-01-20T01:22:31;-1.10;99.90
36458;DHT22;22480;50.546;12.292;2023-01-20T01:24:57;-1.10;99.90
36458;DHT22;22480;50.546;12.292;2023-01-20T01:27:23;-1.10;99.90
36458;DHT22;22480;50.546;12.292;2023-01-20T01:29:49;-1.10;99.90
36458;DHT22;22480;50.546;12.292;2023-01-20T01:32:14;-1.10;99.90
36458;DHT22;22480;50.546;12.292;2023-01-20T01:34:40;-1.20;99.90
36458;DHT22;22480;50.546;12.292;2023-01-20T01:37:06;-1.20;99.90
36458;DHT22;22480;50.546;12.292;2023-01-20T01:39:31;-1.20;99.90
36458;DHT22;22480;50.546;12.292;2023-01-20T01:41:57;-1.20;99.90
36458;DHT22;22480;50.546;12.292;2023-01-20T01:44:25;-1.20;99.90
36458;DHT22;22480;50.546;12.292;2023-01-20T01:46:51;-1.20;99.90
36458;DHT22;22480;50.546;12.292;2023-01-20T01:49:23;-1.20;99.90
36458;DHT22;22480;50.546;12.292;2023-01-20T01:51:57;-1.20;99.90
36458;DHT22;22480;50.546;12.292;2023-01-20T01:54:29;-1.20;99.90
36458;DHT22;22480;50.546;12.292;2023-01-20T01:56:56;-1.20;99.90
36458;DHT22;22480;50.546;12.292;2023-01-20T01:59:21;-1.10;99.90
36458;DHT22;22480;50.546;12.292;2023-01-20T02:01:50;-1.20;99.90
36458;DHT22;22480;50.546;12.292;2023-01-20T02:04:19;-1.20;99.90
36458;DHT22;22480;50.546;12.292;2023-01-20T02:07:05;-1.10;99.90
36458;DHT22;22480;50.546;12.292;2023-01-20T02:09:33;-1.20;99.90
36458;DHT22;22480;50.546;12.292;2023-01-20T02:12:05;-1.20;99.90
36458;DHT22;22480;50.546;12.292;2023-01-20T02:14:39;-1.10;99.90
36458;DHT22;22480;50.546;12.292;2023-01-20T02:30:54;-1.20;99.90
36458;DHT22;22480;50.546;12.292;2023-01-20T02:33:30;-1.20;99.90
36458;DHT22;22480;50.546;12.292;2023-01-20T02:38:46;-1.10;99.90
36458;DHT22;22480;50.546;12.292;2023-01-20T02:41:36;-1.10;99.90
36458;DHT22;22480;50.546;12.292;2023-01-20T02:44:27;-1.10;99.90
36458;DHT22;22480;50.546;12.292;2023-01-20T02:49:55;-1.10;99.90
36458;DHT22;22480;50.546;12.292;2023-01-20T02:52:36;-1.20;99.90
36458;DHT22;22480;50.546;12.292;2023-01-20T02:55:05;-1.20;99.90
36458;DHT22;22480;50.546;12.292;2023-01-20T02:57:37;-1.20;99.90
36458;DHT22;22480;50.546;12.292;2023-01-20T03:00:12;-1.20;99.90
36458;DHT22;22480;50.546;12.292;2023-01-20T03:02:40;-1.20;99.90
36458;DHT22;22480;50.546;12.292;2023-01-20T03:05:10;-1.10;99.90
36458;DHT22;22480;50.546;12.292;2023-01-20T03:07:39;-1.10;99.90
36458;DHT22;22480;50.546;12.292;2023-01-20T03:10:09;-1.10;99.90
36458;DHT22;22480;50.546;12.292;2023-01-20T03:12:45;-1.10;99.90
36458;DHT22;22480;50.546;12.292;2023-01-20T03:15:13;-1.20;99.90
36458;DHT22;22480;50.546;12.292;2023-01-20T03:17:39;-1.10;99.90
36458;DHT22;22480;50.546;12.292;2023-01-20T03:20:05;-1.10;99.90
36458;DHT22;22480;50.546;12.292;2023-01-20T03:22:31;-1.10;99.90
36458;DHT22;22480;50.546;12.292;2023-01-20T03:24:58;-1.10;99.90
36458;DHT22;22480;50.546;12.292;2023-01-20T03:27:25;-1.10;99.90
36458;DHT22;22480;50.546;12.292;2023-01-20T03:29:51;-1.10;99.90
36458;DHT22;22480;50.546;12.292;2023-01-20T03:32:17;-1.10;99.90
36458;DHT22;22480;50.546;12.292;2023-01-20T03:34:47;-1.00;99.90
36458;DHT22;22480;50.546;12.292;2023-01-20T03:37:12;-1.00;99.90
36458;DHT22;22480;50.546;12.292;2023-01-20T03:39:38;-1.00;99.90
36458;DHT22;22480;50.546;12.292;2023-01-20T03:42:15;-1.00;99.90
36458;DHT22;22480;50.546;12.292;2023-01-20T03:45:05;-1.00;99.90
36458;DHT22;22480;50.546;12.292;2023-01-20T03:53:14;-1.00;99.90
36458;DHT22;22480;50.546;12.292;2023-01-20T03:55:51;-1.00;99.90
36458;DHT22;22480;50.546;12.292;2023-01-20T03:58:22;-1.00;99.90
36458;DHT22;22480;50.546;12.292;2023-01-20T04:00:50;-1.00;99.90
36458;DHT22;22480;50.546;12.292;2023-01-20T04:03:21;-1.00;99.90
36458;DHT22;22480;50.546;12.292;2023-01-20T04:05:48;-1.00;99.90
36458;DHT22;22480;50.546;12.292;2023-01-20T04:08:16;-1.10;99.90
36458;DHT22;22480;50.546;12.292;2023-01-20T04:10:45;-1.10;99.90
36458;DHT22;22480;50.546;12.292;2023-01-20T04:13:11;-1.10;99.90
36458;DHT22;22480;50.546;12.292;2023-01-20T04:15:42;-1.10;99.90
36458;DHT22;22480;50.546;12.292;2023-01-20T04:18:19;-1.10;99.90
36458;DHT22;22480;50.546;12.292;2023-01-20T04:20:48;-1.10;99.90
36458;DHT22;22480;50.546;12.292;2023-01-20T04:23:34;-1.10;99.90
36458;DHT22;22480;50.546;12.292;2023-01-20T04:26:01;-1.00;99.90
36458;DHT22;22480;50.546;12.292;2023-01-20T04:28:27;-1.00;99.90
36458;DHT22;22480;50.546;12.292;2023-01-20T04:30:53;-1.00;99.90
36458;DHT22;22480;50.546;12.292;2023-01-20T04:33:18;-1.00;99.90
36458;DHT22;22480;50.546;12.292;2023-01-20T04:35:44;-1.00;99.90
36458;DHT22;22480;50.546;12.292;2023-01-20T04:38:10;-1.10;99.90
36458;DHT22;22480;50.546;12.292;2023-01-20T04:40:35;-1.10;99.90
36458;DHT22;22480;50.546;12.292;2023-01-20T04:43:01;-1.10;99.90
36458;DHT22;22480;50.546;12.292;2023-01-20T04:45:27;-1.10;99.90
36458;DHT22;22480;50.546;12.292;2023-01-20T04:47:52;-1.10;99.90
36458;DHT22;22480;50.546;12.292;2023-01-20T04:50:18;-1.10;99.90
36458;DHT22;22480;50.546;12.292;2023-01-20T04:52:44;-1.20;99.90
36458;DHT22;22480;50.546;12.292;2023-01-20T04:55:10;-1.10;99.90
36458;DHT22;22480;50.546;12.292;2023-01-20T04:57:36;-1.10;99.90
36458;DHT22;22480;50.546;12.292;2023-01-20T05:00:03;-1.10;99.90
36458;DHT22;22480;50.546;12.292;2023-01-20T05:02:29;-1.20;99.90
36458;DHT22;22480;50.546;12.292;2023-01-20T05:04:55;-1.20;99.90
36458;DHT22;22480;50.546;12.292;2023-01-20T05:07:20;-1.20;99.90
36458;DHT22;22480;50.546;12.292;2023-01-20T05:09:46;-1.20;99.90
36458;DHT22;22480;50.546;12.292;2023-01-20T05:12:12;-1.20;99.90
36458;DHT22;22480;50.546;12.292;2023-01-20T05:14:37;-1.20;99.90
36458;DHT22;22480;50.546;12.292;2023-01-20T05:17:03;-1.20;99.90
36458;DHT22;22480;50.546;12.292;2023-01-20T05:19:29;-1.20;99.90
36458;DHT22;22480;50.546;12.292;2023-01-20T05:21:55;-1.20;99.90
36458;DHT22;22480;50.546;12.292;2023-01-20T05:24:20;-1.30;99.90
36458;DHT22;22480;50.546;12.292;2023-01-20T05:26:46;-1.20;99.90
36458;DHT22;22480;50.546;12.292;2023-01-20T05:29:11;-1.30;99.90
36458;DHT22;22480;50.546;12.292;2023-01-20T05:31:37;-1.30;99.90
36458;DHT22;22480;50.546;12.292;2023-01-20T05:34:08;-1.30;99.90
36458;DHT22;22480;50.546;12.292;2023-01-20T05:36:33;-1.30;99.90
36458;DHT22;22480;50.546;12.292;2023-01-20T05:38:59;-1.30;99.90
36458;DHT22;22480;50.546;12.292;2023-01-20T05:41:25;-1.30;99.90
36458;DHT22;22480;50.546;12.292;2023-01-20T05:43:54;-1.30;99.90
36458;DHT22;22480;50.546;12.292;2023-01-20T05:46:20;-1.40;99.90
36458;DHT22;22480;50.546;12.292;2023-01-20T05:48:46;-1.40;99.90
36458;DHT22;22480;50.546;12.292;2023-01-20T05:51:11;-1.30;99.90
36458;DHT22;22480;50.546;12.292;2023-01-20T05:53:37;-1.40;99.90
36458;DHT22;22480;50.546;12.292;2023-01-20T05:56:04;-1.30;99.90
36458;DHT22;22480;50.546;12.292;2023-01-20T05:58:30;-1.30;99.90
36458;DHT22;22480;50.546;12.292;2023-01-20T06:01:10;-1.30;99.90
36458;DHT22;22480;50.546;12.292;2023-01-20T06:03:36;-1.30;99.90
36458;DHT22;22480;50.546;12.292;2023-01-20T06:06:05;-1.30;99.90
36458;DHT22;22480;50.546;12.292;2023-01-20T06:08:31;-1.30;99.90
36458;DHT22;22480;50.546;12.292;2023-01-20T06:10:57;-1.30;99.90
36458;DHT22;22480;50.546;12.292;2023-01-20T06:13:23;-1.30;99.90
36458;DHT22;22480;50.546;12.292;2023-01-20T06:15:52;-1.30;99.90
36458;DHT22;22480;50.546;12.292;2023-01-20T06:18:19;-1.30;99.90
36458;DHT22;22480;50.546;12.292;2023-01-20T06:20:45;-1.30;99.90
36458;DHT22;22480;50.546;12.292;2023-01-20T06:23:11;-1.30;99.90
36458;DHT22;22480;50.546;12.292;2023-01-20T06:25:37;-1.30;99.90
36458;DHT22;22480;50.546;12.292;2023-01-20T06:28:02;-1.30;99.90
36458;DHT22;22480;50.546;12.292;2023-01-20T06:30:28;-1.30;99.90
36458;DHT22;22480;50.546;12.292;2023-01-20T06:32:54;-1.30;99.90
36458;DHT22;22480;50.546;12.292;2023-01-20T06:35:25;-1.40;99.90
36458;DHT22;22480;50.546;12.292;2023-01-20T06:37:51;-1.40;99.90
36458;DHT22;22480;50.546;12.292;2023-01-20T06:40:17;-1.40;99.90
36458;DHT22;22480;50.546;12.292;2023-01-20T06:42:42;-1.40;99.90
36458;DHT22;22480;50.546;12.292;2023-01-20T06:45:08;-1.40;99.90
36458;DHT22;22480;50.546;12.292;2023-01-20T06:47:34;-1.30;99.90
36458;DHT22;22480;50.546;12.292;2023-01-20T06:50:00;-1.40;99.90
36458;DHT22;22480;50.546;12.292;2023-01-20T06:52:26;-1.40;99.90
36458;DHT22;22480;50.546;12.292;2023-01-20T06:54:51;-1.40;99.90
36458;DHT22;22480;50.546;12.292;2023-01-20T06:57:17;-1.40;99.90
36458;DHT22;22480;50.546;12.292;2023-01-20T06:59:44;-1.40;99.90
36458;DHT22;22480;50.546;12.292;2023-01-20T07:02:12;-1.30;99.90
36458;DHT22;22480;50.546;12.292;2023-01-20T07:04:38;-1.30;99.90
36458;DHT22;22480;50.546;12.292;2023-01-20T07:07:04;-1.40;99.90
36458;DHT22;22480;50.546;12.292;2023-01-20T07:09:30;-1.30;99.90
36458;DHT22;22480;50.546;12.292;2023-01-20T07:11:55;-1.30;99.90
36458;DHT22;22480;50.546;12.292;2023-01-20T07:14:21;-1.30;99.90
36458;DHT22;22480;50.546;12.292;2023-01-20T07:16:47;-1.30;99.90
36458;DHT22;22480;50.546;12.292;2023-01-20T07:19:12;-1.30;99.90
36458;DHT22;22480;50.546;12.292;2023-01-20T07:21:38;-1.30;99.90
36458;DHT22;22480;50.546;12.292;2023-01-20T07:24:04;-1.20;99.90
36458;DHT22;22480;50.546;12.292;2023-01-20T07:26:31;-1.10;99.90
36458;DHT22;22480;50.546;12.292;2023-01-20T07:28:57;-1.10;99.90
36458;DHT22;22480;50.546;12.292;2023-01-20T07:31:25;-1.10;99.90
36458;DHT22;22480;50.546;12.292;2023-01-20T07:33:53;-1.10;99.90
36458;DHT22;22480;50.546;12.292;2023-01-20T07:36:18;-1.00;99.90
36458;DHT22;22480;50.546;12.292;2023-01-20T07:38:49;-0.90;99.90
36458;DHT22;22480;50.546;12.292;2023-01-20T07:41:15;-0.90;99.90
36458;DHT22;22480;50.546;12.292;2023-01-20T07:43:43;-0.90;99.90
36458;DHT22;22480;50.546;12.292;2023-01-20T07:46:09;-0.80;99.90
36458;DHT22;22480;50.546;12.292;2023-01-20T07:48:35;-0.80;99.90
36458;DHT22;22480;50.546;12.292;2023-01-20T07:51:04;-0.80;99.90
36458;DHT22;22480;50.546;12.292;2023-01-20T07:53:32;-0.80;99.90
36458;DHT22;22480;50.546;12.292;2023-01-20T07:56:03;-0.80;99.90
36458;DHT22;22480;50.546;12.292;2023-01-20T07:58:28;-0.80;99.90
36458;DHT22;22480;50.546;12.292;2023-01-20T08:00:54;-0.80;99.90
36458;DHT22;22480;50.546;12.292;2023-01-20T08:03:21;-0.70;99.90
36458;DHT22;22480;50.546;12.292;2023-01-20T08:05:47;-0.70;99.90
36458;DHT22;22480;50.546;12.292;2023-01-20T08:08:12;-0.60;99.90
36458;DHT22;22480;50.546;12.292;2023-01-20T08:10:38;-0.60;99.90
36458;DHT22;22480;50.546;12.292;2023-01-20T08:13:04;-0.60;99.90
36458;DHT22;22480;50.546;12.292;2023-01-20T08:15:29;-0.50;99.90
36458;DHT22;22480;50.546;12.292;2023-01-20T08:17:55;-0.50;99.90
36458;DHT22;22480;50.546;12.292;2023-01-20T08:20:22;-0.50;99.90
36458;DHT22;22480;50.546;12.292;2023-01-20T08:22:48;-0.40;99.90
36458;DHT22;22480;50.546;12.292;2023-01-20T08:25:14;-0.30;99.90
36458;DHT22;22480;50.546;12.292;2023-01-20T08:27:40;-0.20;99.90
36458;DHT22;22480;50.546;12.292;2023-01-20T08:30:06;-0.10;99.90
36458;DHT22;22480;50.546;12.292;2023-01-20T08:32:32;0.00;99.90
36458;DHT22;22480;50.546;12.292;2023-01-20T08:34:58;0.20;99.90
36458;DHT22;22480;50.546;12.292;2023-01-20T08:37:23;0.40;99.90
36458;DHT22;22480;50.546;12.292;2023-01-20T08:39:49;0.50;99.90
36458;DHT22;22480;50.546;12.292;2023-01-20T08:42:15;0.60;99.90
36458;DHT22;22480;50.546;12.292;2023-01-20T08:44:41;0.70;99.90
36458;DHT22;22480;50.546;12.292;2023-01-20T08:47:07;0.90;99.90
36458;DHT22;22480;50.546;12.292;2023-01-20T08:49:32;1.00;99.90
36458;DHT22;22480;50.546;12.292;2023-01-20T08:51:58;1.00;99.90
36458;DHT22;22480;50.546;12.292;2023-01-20T08:54:24;1.00;99.90
36458;DHT22;22480;50.546;12.292;2023-01-20T08:56:51;1.00;99.90
36458;DHT22;22480;50.546;12.292;2023-01-20T08:59:17;1.00;99.90
36458;DHT22;22480;50.546;12.292;2023-01-20T09:01:44;1.00;99.90
36458;DHT22;22480;50.546;12.292;2023-01-20T09:04:10;1.10;99.90
36458;DHT22;22480;50.546;12.292;2023-01-20T09:06:44;1.10;99.90
36458;DHT22;22480;50.546;12.292;2023-01-20T09:09:11;1.20;99.90
36458;DHT22;22480;50.546;12.292;2023-01-20T09:11:38;1.20;99.90
36458;DHT22;22480;50.546;12.292;2023-01-20T09:14:04;1.20;99.90
36458;DHT22;22480;50.546;12.292;2023-01-20T09:16:30;1.10;99.90
36458;DHT22;22480;50.546;12.292;2023-01-20T09:18:55;1.10;99.90
36458;DHT22;22480;50.546;12.292;2023-01-20T09:21:21;1.00;99.90
36458;DHT22;22480;50.546;12.292;2023-01-20T09:23:47;0.90;99.90
36458;DHT22;22480;50.546;12.292;2023-01-20T09:26:13;0.90;99.90
36458;DHT22;22480;50.546;12.292;2023-01-20T09:28:39;0.80;99.90
36458;DHT22;22480;50.546;12.292;2023-01-20T09:31:09;0.80;99.90
36458;DHT22;22480;50.546;12.292;2023-01-20T09:33:37;0.80;99.90
36458;DHT22;22480;50.546;12.292;2023-01-20T09:36:05;0.90;99.90
36458;DHT22;22480;50.546;12.292;2023-01-20T09:38:31;1.00;99.90
36458;DHT22;22480;50.546;12.292;2023-01-20T09:41:30;0.90;99.90
36458;DHT22;22480;50.546;12.292;2023-01-20T09:44:40;0.90;99.90
36458;DHT22;22480;50.546;12.292;2023-01-20T09:55:53;1.10;99.90
36458;DHT22;22480;50.546;12.292;2023-01-20T10:01:27;1.30;99.90
36458;DHT22;22480;50.546;12.292;2023-01-20T10:04:00;1.50;99.90
36458;DHT22;22480;50.546;12.292;2023-01-20T10:06:40;1.60;99.90
36458;DHT22;22480;50.546;12.292;2023-01-20T10:09:18;1.80;99.90
36458;DHT22;22480;50.546;12.292;2023-01-20T10:11:47;1.90;99.90
36458;DHT22;22480;50.546;12.292;2023-01-20T10:14:28;1.90;99.90
36458;DHT22;22480;50.546;12.292;2023-01-20T10:17:04;2.00;99.90
36458;DHT22;22480;50.546;12.292;2023-01-20T10:25:26;2.10;99.90
36458;DHT22;22480;50.546;12.292;2023-01-20T10:27:32;2.20;99.90
36458;DHT22;22480;50.546;12.292;2023-01-20T10:30:19;2.20;99.90
36458;DHT22;22480;50.546;12.292;2023-01-20T10:32:59;2.30;99.90
36458;DHT22;22480;50.546;12.292;2023-01-20T10:35:28;2.50;99.90
36458;DHT22;22480;50.546;12.292;2023-01-20T10:37:55;2.70;99.90
36458;DHT22;22480;50.546;12.292;2023-01-20T10:40:30;2.90;99.90
36458;DHT22;22480;50.546;12.292;2023-01-20T10:42:58;3.20;99.90
36458;DHT22;22480;50.546;12.292;2023-01-20T10:45:36;3.40;99.90
36458;DHT22;22480;50.546;12.292;2023-01-20T10:48:19;3.40;99.90
36458;DHT22;22480;50.546;12.292;2023-01-20T10:58:58;4.40;99.90
36458;DHT22;22480;50.546;12.292;2023-01-20T11:01:26;4.70;99.90
36458;DHT22;22480;50.546;12.292;2023-01-20T11:03:52;5.10;99.90
36458;DHT22;22480;50.546;12.292;2023-01-20T11:06:20;5.10;99.90
36458;DHT22;22480;50.546;12.292;2023-01-20T11:08:47;5.20;99.90
36458;DHT22;22480;50.546;12.292;2023-01-20T11:11:22;5.50;99.90
36458;DHT22;22480;50.546;12.292;2023-01-20T11:13:49;5.80;99.90
36458;DHT22;22480;50.546;12.292;2023-01-20T11:16:19;6.30;99.90
36458;DHT22;22480;50.546;12.292;2023-01-20T11:19:02;6.70;99.90
36458;DHT22;22480;50.546;12.292;2023-01-20T11:21:30;7.70;99.90
36458;DHT22;22480;50.546;12.292;2023-01-20T11:23:58;8.70;99.90
36458;DHT22;22480;50.546;12.292;2023-01-20T11:26:33;9.70;99.90
36458;DHT22;22480;50.546;12.292;2023-01-20T11:31:43;11.40;99.90
36458;DHT22;22480;50.546;12.292;2023-01-20T11:34:26;12.20;99.90
36458;DHT22;22480;50.546;12.292;2023-01-20T11:39:32;11.70;99.90
36458;DHT22;22480;50.546;12.292;2023-01-20T11:42:18;11.50;99.90
36458;DHT22;22480;50.546;12.292;2023-01-20T11:44:48;11.20;99.90
36458;DHT22;22480;50.546;12.292;2023-01-20T11:47:35;11.40;99.90
36458;DHT22;22480;50.546;12.292;2023-01-20T11:52:39;11.20;99.90
36458;DHT22;22480;50.546;12.292;2023-01-20T11:57:46;11.10;99.90
36458;DHT22;22480;50.546;12.292;2023-01-20T12:03:02;10.60;99.90
36458;DHT22;22480;50.546;12.292;2023-01-20T12:05:42;10.20;99.90
36458;DHT22;22480;50.546;12.292;2023-01-20T12:11:00;9.40;99.90
36458;DHT22;22480;50.546;12.292;2023-01-20T12:13:29;9.00;99.90
36458;DHT22;22480;50.546;12.292;2023-01-20T12:15:58;8.60;99.90
36458;DHT22;22480;50.546;12.292;2023-01-20T12:18:39;8.20;99.90
36458;DHT22;22480;50.546;12.292;2023-01-20T12:21:10;7.80;99.90
36458;DHT22;22480;50.546;12.292;2023-01-20T12:23:52;7.40;99.90
36458;DHT22;22480;50.546;12.292;2023-01-20T12:26:21;7.10;99.90
36458;DHT22;22480;50.546;12.292;2023-01-20T12:31:32;6.40;99.90
36458;DHT22;22480;50.546;12.292;2023-01-20T12:34:10;6.10;99.90
36458;DHT22;22480;50.546;12.292;2023-01-20T12:44:38;7.50;99.90
36458;DHT22;22480;50.546;12.292;2023-01-20T12:57:50;9.90;99.90
36458;DHT22;22480;50.546;12.292;2023-01-20T13:00:26;9.60;95.50
36458;DHT22;22480;50.546;12.292;2023-01-20T13:03:25;9.60;99.90
36458;DHT22;22480;50.546;12.292;2023-01-20T13:14:07;7.50;99.90
36458;DHT22;22480;50.546;12.292;2023-01-20T13:19:47;7.20;99.90
36458;DHT22;22480;50.546;12.292;2023-01-20T13:22:17;7.00;99.90
36458;DHT22;22480;50.546;12.292;2023-01-20T13:24:47;6.90;99.90
36458;DHT22;22480;50.546;12.292;2023-01-20T13:27:22;6.80;99.90
36458;DHT22;22480;50.546;12.292;2023-01-20T13:32:39;6.50;99.90
36458;DHT22;22480;50.546;12.292;2023-01-20T13:37:53;6.40;99.90
36458;DHT22;22480;50.546;12.292;2023-01-20T13:43:45;6.40;99.90
36458;DHT22;22480;50.546;12.292;2023-01-20T13:49:11;5.60;99.90
36458;DHT22;22480;50.546;12.292;2023-01-20T13:54:42;5.60;99.90
36458;DHT22;22480;50.546;12.292;2023-01-20T13:59:47;5.80;99.90
36458;DHT22;22480;50.546;12.292;2023-01-20T14:02:17;6.10;99.90
36458;DHT22;22480;50.546;12.292;2023-01-20T14:04:44;6.50;99.90
36458;DHT22;22480;50.546;12.292;2023-01-20T14:07:25;6.60;99.90
36458;DHT22;22480;50.546;12.292;2023-01-20T14:09:55;6.70;99.90
36458;DHT22;22480;50.546;12.292;2023-01-20T14:12:22;6.50;99.90
36458;DHT22;22480;50.546;12.292;2023-01-20T14:14:48;5.90;99.90
36458;DHT22;22480;50.546;12.292;2023-01-20T14:17:20;5.40;99.90
36458;DHT22;22480;50.546;12.292;2023-01-20T14:19:49;5.00;99.90
36458;DHT22;22480;50.546;12.292;2023-01-20T14:22:23;4.40;99.90
36458;DHT22;22480;50.546;12.292;2023-01-20T14:24:51;3.90;99.90
36458;DHT22;22480;50.546;12.292;2023-01-20T14:27:28;3.50;99.90
36458;DHT22;22480;50.546;12.292;2023-01-20T14:29:58;3.00;99.90
36458;DHT22;22480;50.546;12.292;2023-01-20T14:32:37;2.80;99.90
36458;DHT22;22480;50.546;12.292;2023-01-20T14:35:25;3.40;99.90
36458;DHT22;22480;50.546;12.292;2023-01-20T14:37:53;4.20;99.90
36458;DHT22;22480;50.546;12.292;2023-01-20T14:40:36;4.00;99.90
36458;DHT22;22480;50.546;12.292;2023-01-20T14:43:16;3.50;99.90
36458;DHT22;22480;50.546;12.292;2023-01-20T14:45:45;2.90;99.90
36458;DHT22;22480;50.546;12.292;2023-01-20T14:48:12;2.60;99.90
36458;DHT22;22480;50.546;12.292;2023-01-20T14:50:39;2.20;99.90
36458;DHT22;22480;50.546;12.292;2023-01-20T14:53:05;2.00;99.90
36458;DHT22;22480;50.546;12.292;2023-01-20T14:55:38;1.70;99.90
36458;DHT22;22480;50.546;12.292;2023-01-20T14:58:17;1.50;99.90
36458;DHT22;22480;50.546;12.292;2023-01-20T15:00:44;1.30;99.90
36458;DHT22;22480;50.546;12.292;2023-01-20T15:03:22;1.00;99.90
36458;DHT22;22480;50.546;12.292;2023-01-20T15:21:47;-0.10;99.90
36458;DHT22;22480;50.546;12.292;2023-01-20T15:24:28;-0.30;99.90
36458;DHT22;22480;50.546;12.292;2023-01-20T15:26:55;-0.40;99.90
36458;DHT22;22480;50.546;12.292;2023-01-20T15:29:30;-0.40;99.90
36458;DHT22;22480;50.546;12.292;2023-01-20T15:32:10;-0.50;99.90
36458;DHT22;22480;50.546;12.292;2023-01-20T15:34:37;-0.60;99.90
36458;DHT22;22480;50.546;12.292;2023-01-20T15:37:10;-0.60;99.90
36458;DHT22;22480;50.546;12.292;2023-01-20T15:39:38;-0.70;99.90
36458;DHT22;22480;50.546;12.292;2023-01-20T15:42:05;-0.70;99.90
36458;DHT22;22480;50.546;12.292;2023-01-20T15:44:33;-0.80;99.90
36458;DHT22;22480;50.546;12.292;2023-01-20T15:46:59;-0.80;99.90
36458;DHT22;22480;50.546;12.292;2023-01-20T15:49:25;-1.00;99.90
36458;DHT22;22480;50.546;12.292;2023-01-20T15:51:51;-1.10;99.90
36458;DHT22;22480;50.546;12.292;2023-01-20T15:54:17;-1.20;99.90
36458;DHT22;22480;50.546;12.292;2023-01-20T15:56:42;-1.40;99.90
36458;DHT22;22480;50.546;12.292;2023-01-20T15:59:13;-1.60;99.90
36458;DHT22;22480;50.546;12.292;2023-01-20T16:01:39;-2.00;99.90
36458;DHT22;22480;50.546;12.292;2023-01-20T16:04:05;-2.20;99.90
36458;DHT22;22480;50.546;12.292;2023-01-20T16:06:32;-2.50;99.90
36458;DHT22;22480;50.546;12.292;2023-01-20T16:09:02;-2.80;99.90
36458;DHT22;22480;50.546;12.292;2023-01-20T16:11:28;-2.90;99.90
36458;DHT22;22480;50.546;12.292;2023-01-20T16:13:54;-2.90;99.90
36458;DHT22;22480;50.546;12.292;2023-01-20T16:16:22;-2.90;99.90
36458;DHT22;22480;50.546;12.292;2023-01-20T16:18:48;-3.00;99.90
36458;DHT22;22480;50.546;12.292;2023-01-20T16:21:16;-3.10;99.90
36458;DHT22;22480;50.546;12.292;2023-01-20T16:23:42;-3.10;99.90
36458;DHT22;22480;50.546;12.292;2023-01-20T16:28:42;-3.30;99.90
36458;DHT22;22480;50.546;12.292;2023-01-20T16:31:10;-3.30;99.90
36458;DHT22;22480;50.546;12.292;2023-01-20T16:33:36;-3.30;99.90
36458;DHT22;22480;50.546;12.292;2023-01-20T16:36:02;-3.40;99.90
36458;DHT22;22480;50.546;12.292;2023-01-20T16:38:27;-3.50;99.90
36458;DHT22;22480;50.546;12.292;2023-01-20T16:41:05;-3.60;99.90
36458;DHT22;22480;50.546;12.292;2023-01-20T16:43:37;-3.70;99.90
36458;DHT22;22480;50.546;12.292;2023-01-20T16:46:05;-3.70;99.90
36458;DHT22;22480;50.546;12.292;2023-01-20T16:48:30;-3.80;99.90
36458;DHT22;22480;50.546;12.292;2023-01-20T16:50:58;-3.90;99.90
36458;DHT22;22480;50.546;12.292;2023-01-20T16:53:28;-4.10;99.90
36458;DHT22;22480;50.546;12.292;2023-01-20T16:55:54;-4.30;99.90
36458;DHT22;22480;50.546;12.292;2023-01-20T16:58:20;-4.50;99.90
36458;DHT22;22480;50.546;12.292;2023-01-20T17:00:45;-4.60;99.90
36458;DHT22;22480;50.546;12.292;2023-01-20T17:03:11;-4.80;99.90
36458;DHT22;22480;50.546;12.292;2023-01-20T17:05:37;-4.80;99.90
36458;DHT22;22480;50.546;12.292;2023-01-20T17:08:03;-4.70;99.90
36458;DHT22;22480;50.546;12.292;2023-01-20T17:10:29;-4.60;99.90
36458;DHT22;22480;50.546;12.292;2023-01-20T17:12:57;-4.70;99.90
36458;DHT22;22480;50.546;12.292;2023-01-20T17:15:24;-4.80;99.90
36458;DHT22;22480;50.546;12.292;2023-01-20T17:17:51;-4.90;99.90
36458;DHT22;22480;50.546;12.292;2023-01-20T17:20:19;-5.00;99.90
36458;DHT22;22480;50.546;12.292;2023-01-20T17:22:45;-5.10;99.90
36458;DHT22;22480;50.546;12.292;2023-01-20T17:25:12;-5.10;99.90
36458;DHT22;22480;50.546;12.292;2023-01-20T17:27:38;-5.20;99.90
36458;DHT22;22480;50.546;12.292;2023-01-20T17:30:05;-5.10;99.90
36458;DHT22;22480;50.546;12.292;2023-01-20T17:32:35;-5.10;99.90
36458;DHT22;22480;50.546;12.292;2023-01-20T17:35:01;-5.10;99.90
36458;DHT22;22480;50.546;12.292;2023-01-20T17:37:27;-5.00;99.90
36458;DHT22;22480;50.546;12.292;2023-01-20T17:39:53;-5.10;99.90
36458;DHT22;22480;50.546;12.292;2023-01-20T17:42:18;-5.00;99.90
36458;DHT22;22480;50.546;12.292;2023-01-20T17:44:44;-5.10;99.90
36458;DHT22;22480;50.546;12.292;2023-01-20T17:47:10;-5.10;99.90